Darstellungsparameter: Aktuell verwendete Einstellungen:
Skalierung der Graphiken ... ?
xyx+y,   Skalierungsfaktor:      Skalierung: Modus: x, Faktor: 1
Darstellungszeitraum ... ?
Vom - - bis: - -   Zeitraum: 21.10.2021 - 23.10.2021
Min/Max/Avg-Anzeige ... ?
Zeige MMA aktuell
Zeige MMA Monat
Zeige MMA alles
Zeige --A aktuell
Zeige --A Monat
Zeige --A alles
Keine MMA-Anzeige
MMA:
Average (ber die Originaldaten)
MMA-Basis: 21.10.2021 - 23.10.2021
Quicknavigation für Darstellung... ?
Tage:      1T, 2T, 3T, 5T -1T -2T -3T -5T +1T +2T +3T +5T
Wochen: 1W, 2W, 3W -1W -2W -3W +1W +2W +3W
Monate: 1M, 3M, 6M -1M -3M -6M +1M +3M +6M
Jahre:    1J, 3J, 5J, 10J -1J -3J -5J -10J +1J +3J +5J +10J
Nutze für die Darstellung ... ?
Originaldaten oder Mittelwerte auf ...
Stundenbasis Tagesbasis Wochenbasis
Monatsbasis Jahresbasis      Datenbasis: Original-Daten
Darstellen als:
Statistik (Auto) Statistik J:M      Darstellung:
Zur Graphik,    zurück zur Übersicht aller Sensoren.
 
Tabellarische Datenbersicht: ?
 
Sensor: Nr:Datum:Temp:Abs-Feuchte:Windchill:Wind:
Aussen-T/F 1 21-10-2021 00:00:00 14.8 C 12.16 g/m*3 14.8 C 0 km/h
2 21-10-2021 00:05:00 14.8 C 12.16 g/m*3 14.8 C 3.2 km/h
3 21-10-2021 00:10:00 14.7 C 12.09 g/m*3 14.7 C 1.6 km/h
4 21-10-2021 00:15:00 14.7 C 12.09 g/m*3 14.7 C 1.6 km/h
5 21-10-2021 00:20:00 14.7 C 12.09 g/m*3 14.7 C 3.2 km/h
6 21-10-2021 00:25:00 14.8 C 12.16 g/m*3 14.8 C 4.8 km/h
7 21-10-2021 00:30:00 14.8 C 12.16 g/m*3 14.8 C 9.7 km/h
8 21-10-2021 00:35:00 14.9 C 12.24 g/m*3 14.9 C 11.3 km/h
9 21-10-2021 00:40:00 15 C 12.18 g/m*3 15 C 8.1 km/h
10 21-10-2021 00:45:00 15.2 C 12.33 g/m*3 15.2 C 4.8 km/h
11 21-10-2021 00:50:00 15.2 C 12.2 g/m*3 15.2 C 3.2 km/h
12 21-10-2021 00:55:00 15.1 C 12.13 g/m*3 15.1 C 3.2 km/h
13 21-10-2021 01:00:00 15.1 C 12.13 g/m*3 15.1 C 4.8 km/h
14 21-10-2021 01:05:00 15.1 C 12.13 g/m*3 15.1 C 1.6 km/h
15 21-10-2021 01:10:00 15.1 C 12.13 g/m*3 15.1 C 4.8 km/h
16 21-10-2021 01:15:00 15.1 C 12.13 g/m*3 15.1 C 8.1 km/h
17 21-10-2021 01:20:00 15.2 C 12.07 g/m*3 15.2 C 11.3 km/h
18 21-10-2021 01:25:00 15.3 C 11.88 g/m*3 15.3 C 16.1 km/h
19 21-10-2021 01:30:00 15.6 C 12.1 g/m*3 15.6 C 8.1 km/h
20 21-10-2021 01:35:00 15.6 C 11.97 g/m*3 15.6 C 9.7 km/h
21 21-10-2021 01:40:00 15.6 C 11.97 g/m*3 15.6 C 4.8 km/h
22 21-10-2021 01:45:00 15.6 C 11.84 g/m*3 15.6 C 8.1 km/h
23 21-10-2021 01:50:00 15.6 C 11.84 g/m*3 15.6 C 14.5 km/h
24 21-10-2021 01:55:00 15.6 C 11.84 g/m*3 15.6 C 8.1 km/h
25 21-10-2021 02:00:00 15.6 C 11.84 g/m*3 15.6 C 4.8 km/h
Sensor: Nr:Datum:Temp:Abs-Feuchte:Windchill:Wind:
Aussen-T/F 26 21-10-2021 02:05:00 15.6 C 11.84 g/m*3 15.6 C 6.4 km/h
27 21-10-2021 02:10:00 15.5 C 11.76 g/m*3 15.5 C 1.6 km/h
28 21-10-2021 02:15:00 15.4 C 11.69 g/m*3 15.4 C 9.7 km/h
29 21-10-2021 02:20:00 15.4 C 11.69 g/m*3 15.4 C 3.2 km/h
30 21-10-2021 02:25:00 15.6 C 11.7 g/m*3 15.6 C 14.5 km/h
31 21-10-2021 02:30:00 15.8 C 11.71 g/m*3 15.8 C 9.7 km/h
32 21-10-2021 02:35:00 15.9 C 11.78 g/m*3 15.9 C 9.7 km/h
33 21-10-2021 02:40:00 15.9 C 11.92 g/m*3 15.9 C 6.4 km/h
34 21-10-2021 02:45:00 15.9 C 12.05 g/m*3 15.9 C 9.7 km/h
35 21-10-2021 02:50:00 15.8 C 12.11 g/m*3 15.8 C 14.5 km/h
36 21-10-2021 02:55:00 15.7 C 12.04 g/m*3 15.7 C 3.2 km/h
37 21-10-2021 03:00:00 15.6 C 11.97 g/m*3 15.6 C 24.1 km/h
38 21-10-2021 03:05:00 15.6 C 12.1 g/m*3 15.6 C 24.1 km/h
39 21-10-2021 03:10:00 15.6 C 12.1 g/m*3 15.6 C 8.1 km/h
40 21-10-2021 03:15:00 15.5 C 12.03 g/m*3 15.5 C 29 km/h
41 21-10-2021 03:20:00 15.3 C 11.88 g/m*3 15.3 C 29 km/h
42 21-10-2021 03:25:00 15.1 C 11.74 g/m*3 15.1 C 20.9 km/h
43 21-10-2021 03:30:00 14.8 C 11.4 g/m*3 14.8 C 12.9 km/h
44 21-10-2021 03:35:00 14.4 C 11.13 g/m*3 14.4 C 11.3 km/h
45 21-10-2021 03:40:00 14.1 C 10.44 g/m*3 14.1 C 30.6 km/h
46 21-10-2021 03:45:00 13.9 C 10.31 g/m*3 13.9 C 25.7 km/h
47 21-10-2021 03:50:00 13.9 C 10.31 g/m*3 13.9 C 16.1 km/h
48 21-10-2021 03:55:00 13.8 C 10.25 g/m*3 13.8 C 24.1 km/h
49 21-10-2021 04:00:00 13.9 C 10.43 g/m*3 13.9 C 17.7 km/h
50 21-10-2021 04:05:00 13.9 C 10.31 g/m*3 13.9 C 25.7 km/h
Sensor: Nr:Datum:Temp:Abs-Feuchte:Windchill:Wind:
Aussen-T/F 51 21-10-2021 04:10:00 13.8 C 9.65 g/m*3 13.8 C 35.4 km/h
52 21-10-2021 04:15:00 13.8 C 9.41 g/m*3 13.8 C 25.7 km/h
53 21-10-2021 04:20:00 13.9 C 9.47 g/m*3 13.9 C 29 km/h
54 21-10-2021 04:25:00 13.8 C 9.29 g/m*3 13.8 C 20.9 km/h
55 21-10-2021 04:30:00 13.8 C 9.41 g/m*3 13.8 C 20.9 km/h
56 21-10-2021 04:35:00 13.7 C 9.12 g/m*3 13.7 C 20.9 km/h
57 21-10-2021 04:40:00 13.7 C 9.24 g/m*3 13.7 C 24.1 km/h
58 21-10-2021 04:45:00 13.8 C 9.29 g/m*3 13.8 C 22.5 km/h
59 21-10-2021 04:50:00 13.8 C 9.17 g/m*3 13.8 C 20.9 km/h
60 21-10-2021 04:55:00 13.8 C 9.29 g/m*3 13.8 C 22.5 km/h
61 21-10-2021 05:00:00 13.7 C 9.24 g/m*3 13.7 C 17.7 km/h
62 21-10-2021 05:05:00 13.7 C 9.24 g/m*3 13.7 C 9.7 km/h
63 21-10-2021 05:10:00 13.7 C 9.24 g/m*3 13.7 C 14.5 km/h
64 21-10-2021 05:15:00 13.7 C 9.24 g/m*3 13.7 C 24.1 km/h
65 21-10-2021 05:20:00 13.6 C 9.06 g/m*3 13.6 C 24.1 km/h
66 21-10-2021 05:25:00 13.6 C 9.06 g/m*3 13.6 C 27.4 km/h
67 21-10-2021 05:30:00 13.7 C 9 g/m*3 13.7 C 29 km/h
68 21-10-2021 05:35:00 13.8 C 9.06 g/m*3 13.8 C 24.1 km/h
69 21-10-2021 05:40:00 13.8 C 9.06 g/m*3 13.8 C 25.7 km/h
70 21-10-2021 05:45:00 13.8 C 8.94 g/m*3 13.8 C 22.5 km/h
71 21-10-2021 05:50:00 13.8 C 9.06 g/m*3 13.8 C 33.8 km/h
72 21-10-2021 05:55:00 13.7 C 8.88 g/m*3 13.7 C 24.1 km/h
73 21-10-2021 06:00:00 13.7 C 8.88 g/m*3 13.7 C 37 km/h
74 21-10-2021 06:05:00 13.8 C 9.06 g/m*3 13.8 C 37 km/h
75 21-10-2021 06:10:00 13.7 C 8.88 g/m*3 13.7 C 30.6 km/h
Sensor: Nr:Datum:Temp:Abs-Feuchte:Windchill:Wind:
Aussen-T/F 76 21-10-2021 06:15:00 13.7 C 9 g/m*3 13.7 C 24.1 km/h
77 21-10-2021 06:20:00 13.7 C 9 g/m*3 13.7 C 37 km/h
78 21-10-2021 06:25:00 13.7 C 9 g/m*3 13.7 C 29 km/h
79 21-10-2021 06:30:00 13.7 C 9 g/m*3 13.7 C 25.7 km/h
80 21-10-2021 06:35:00 13.7 C 8.88 g/m*3 13.7 C 25.7 km/h
81 21-10-2021 06:40:00 13.7 C 8.88 g/m*3 13.7 C 19.3 km/h
82 21-10-2021 06:45:00 13.7 C 8.88 g/m*3 13.7 C 46.7 km/h
83 21-10-2021 06:50:00 13.7 C 8.88 g/m*3 13.7 C 27.4 km/h
84 21-10-2021 06:55:00 13.7 C 8.88 g/m*3 13.7 C 33.8 km/h
85 21-10-2021 07:00:00 13.7 C 8.88 g/m*3 13.7 C 35.4 km/h
86 21-10-2021 07:05:00 13.6 C 8.83 g/m*3 13.6 C 30.6 km/h
87 21-10-2021 07:10:00 13.5 C 8.89 g/m*3 13.5 C 37 km/h
88 21-10-2021 07:15:00 13.4 C 8.83 g/m*3 13.4 C 40.2 km/h
89 21-10-2021 07:20:00 13.3 C 9.01 g/m*3 13.3 C 24.1 km/h
90 21-10-2021 07:25:00 13.1 C 9.01 g/m*3 13.1 C 33.8 km/h
91 21-10-2021 07:30:00 12.8 C 8.85 g/m*3 12.8 C 35.4 km/h
92 21-10-2021 07:35:00 12.8 C 8.85 g/m*3 12.8 C 33.8 km/h
93 21-10-2021 07:40:00 12.7 C 8.91 g/m*3 12.7 C 25.7 km/h
94 21-10-2021 07:45:00 12.7 C 8.91 g/m*3 12.7 C 32.2 km/h
95 21-10-2021 07:50:00 12.7 C 8.91 g/m*3 12.7 C 33.8 km/h
96 21-10-2021 07:55:00 12.7 C 8.91 g/m*3 12.7 C 30.6 km/h
97 21-10-2021 08:00:00 12.6 C 8.85 g/m*3 12.6 C 30.6 km/h
98 21-10-2021 08:05:00 12.6 C 8.85 g/m*3 12.6 C 41.8 km/h
99 21-10-2021 08:10:00 12.6 C 8.85 g/m*3 12.6 C 35.4 km/h
100 21-10-2021 08:15:00 12.5 C 8.91 g/m*3 12.5 C 27.4 km/h
Sensor: Nr:Datum:Temp:Abs-Feuchte:Windchill:Wind:
Aussen-T/F 101 21-10-2021 08:20:00 12.4 C 8.85 g/m*3 12.4 C 29 km/h
102 21-10-2021 08:25:00 12.4 C 8.96 g/m*3 12.4 C 29 km/h
103 21-10-2021 08:30:00 12.3 C 8.9 g/m*3 12.3 C 24.1 km/h
104 21-10-2021 08:35:00 12.3 C 9.01 g/m*3 12.3 C 29 km/h
105 21-10-2021 08:40:00 12.2 C 9.06 g/m*3 12.2 C 24.1 km/h
106 21-10-2021 08:45:00 12.2 C 9.06 g/m*3 12.2 C 22.5 km/h
107 21-10-2021 08:50:00 12.2 C 9.06 g/m*3 12.2 C 17.7 km/h
108 21-10-2021 08:55:00 12.2 C 9.06 g/m*3 12.2 C 16.1 km/h
109 21-10-2021 09:00:00 12.1 C 9.01 g/m*3 12.1 C 17.7 km/h
110 21-10-2021 09:05:00 12.1 C 8.79 g/m*3 12.1 C 30.6 km/h
111 21-10-2021 09:10:00 12.2 C 8.63 g/m*3 12.2 C 25.7 km/h
112 21-10-2021 09:15:00 12.3 C 8.58 g/m*3 12.3 C 33.8 km/h
113 21-10-2021 09:20:00 12.3 C 8.47 g/m*3 12.3 C 29 km/h
114 21-10-2021 09:25:00 12.2 C 8.52 g/m*3 12.2 C 25.7 km/h
115 21-10-2021 09:30:00 12.1 C 8.47 g/m*3 12.1 C 19.3 km/h
116 21-10-2021 09:35:00 12 C 8.42 g/m*3 12 C 30.6 km/h
117 21-10-2021 09:40:00 11.9 C 8.37 g/m*3 11.9 C 22.5 km/h
118 21-10-2021 09:45:00 11.8 C 8.31 g/m*3 11.8 C 22.5 km/h
119 21-10-2021 09:50:00 11.6 C 8.32 g/m*3 11.6 C 24.1 km/h
120 21-10-2021 09:55:00 11.5 C 8.16 g/m*3 11.5 C 25.7 km/h
121 21-10-2021 10:00:00 11.4 C 7.9 g/m*3 11.4 C 19.3 km/h
122 21-10-2021 10:05:00 11.5 C 8.06 g/m*3 11.5 C 16.1 km/h
123 21-10-2021 10:10:00 11.4 C 8.01 g/m*3 11.4 C 16.1 km/h
124 21-10-2021 10:15:00 11.4 C 8.01 g/m*3 11.4 C 19.3 km/h
125 21-10-2021 10:20:00 11.3 C 8.06 g/m*3 11.3 C 12.9 km/h
Sensor: Nr:Datum:Temp:Abs-Feuchte:Windchill:Wind:
Aussen-T/F 126 21-10-2021 10:25:00 11.4 C 8.21 g/m*3 11.4 C 16.1 km/h
127 21-10-2021 10:30:00 11.4 C 8.11 g/m*3 11.4 C 20.9 km/h
128 21-10-2021 10:35:00 11.4 C 8.31 g/m*3 11.4 C 16.1 km/h
129 21-10-2021 10:40:00 11.3 C 8.36 g/m*3 11.3 C 19.3 km/h
130 21-10-2021 10:45:00 11.2 C 8.41 g/m*3 11.2 C 17.7 km/h
131 21-10-2021 10:50:00 11.3 C 8.36 g/m*3 11.3 C 24.1 km/h
132 21-10-2021 10:55:00 11.3 C 8.36 g/m*3 11.3 C 24.1 km/h
133 21-10-2021 11:00:00 11.5 C 8.37 g/m*3 11.5 C 20.9 km/h
134 21-10-2021 11:05:00 11.6 C 8.52 g/m*3 11.6 C 16.1 km/h
135 21-10-2021 11:10:00 11.8 C 8.42 g/m*3 11.8 C 19.3 km/h
136 21-10-2021 11:15:00 11.9 C 8.37 g/m*3 11.9 C 24.1 km/h
137 21-10-2021 11:20:00 12.1 C 8.36 g/m*3 12.1 C 29 km/h
138 21-10-2021 11:25:00 12.2 C 8.31 g/m*3 12.2 C 30.6 km/h
139 21-10-2021 11:30:00 12.3 C 8.14 g/m*3 12.3 C 22.5 km/h
140 21-10-2021 11:35:00 12.3 C 8.14 g/m*3 12.3 C 24.1 km/h
141 21-10-2021 11:40:00 12.3 C 8.04 g/m*3 12.3 C 33.8 km/h
142 21-10-2021 11:45:00 12.3 C 8.14 g/m*3 12.3 C 27.4 km/h
143 21-10-2021 11:50:00 12.3 C 8.47 g/m*3 12.3 C 22.5 km/h
144 21-10-2021 11:55:00 12.2 C 8.42 g/m*3 12.2 C 19.3 km/h
145 21-10-2021 12:00:00 12 C 8.42 g/m*3 12 C 22.5 km/h
146 21-10-2021 12:05:00 11.9 C 8.47 g/m*3 11.9 C 20.9 km/h
147 21-10-2021 12:10:00 11.9 C 8.37 g/m*3 11.9 C 19.3 km/h
148 21-10-2021 12:15:00 11.9 C 8.37 g/m*3 11.9 C 25.7 km/h
149 21-10-2021 12:20:00 12 C 8.42 g/m*3 12 C 11.3 km/h
150 21-10-2021 12:25:00 12.1 C 8.58 g/m*3 12.1 C 20.9 km/h
Sensor: Nr:Datum:Temp:Abs-Feuchte:Windchill:Wind:
Aussen-T/F 151 21-10-2021 12:30:00 12.1 C 8.58 g/m*3 12.1 C 11.3 km/h
152 21-10-2021 12:35:00 12.2 C 8.63 g/m*3 12.2 C 17.7 km/h
153 21-10-2021 12:40:00 12.3 C 8.69 g/m*3 12.3 C 12.9 km/h
154 21-10-2021 12:45:00 12.6 C 8.85 g/m*3 12.6 C 19.3 km/h
155 21-10-2021 12:50:00 12.8 C 8.85 g/m*3 12.8 C 19.3 km/h
156 21-10-2021 12:55:00 12.9 C 8.68 g/m*3 12.9 C 12.9 km/h
157 21-10-2021 13:00:00 13.1 C 8.67 g/m*3 13.1 C 22.5 km/h
158 21-10-2021 13:05:00 13.2 C 8.73 g/m*3 13.2 C 20.9 km/h
159 21-10-2021 13:10:00 13.2 C 8.61 g/m*3 13.2 C 19.3 km/h
160 21-10-2021 13:15:00 13.3 C 8.66 g/m*3 13.3 C 22.5 km/h
161 21-10-2021 13:20:00 13.4 C 8.72 g/m*3 13.4 C 17.7 km/h
162 21-10-2021 13:25:00 13.6 C 8.94 g/m*3 13.6 C 30.6 km/h
163 21-10-2021 13:30:00 13.5 C 8.66 g/m*3 13.5 C 20.9 km/h
164 21-10-2021 13:35:00 13.4 C 8.72 g/m*3 13.4 C 19.3 km/h
165 21-10-2021 13:40:00 13.3 C 8.78 g/m*3 13.3 C 20.9 km/h
166 21-10-2021 13:45:00 13.3 C 8.9 g/m*3 13.3 C 19.3 km/h
167 21-10-2021 13:50:00 13.2 C 8.73 g/m*3 13.2 C 19.3 km/h
168 21-10-2021 13:55:00 13.1 C 8.79 g/m*3 13.1 C 20.9 km/h
169 21-10-2021 14:00:00 12.8 C 8.74 g/m*3 12.8 C 24.1 km/h
170 21-10-2021 14:05:00 12.7 C 8.79 g/m*3 12.7 C 17.7 km/h
171 21-10-2021 14:10:00 12.7 C 8.91 g/m*3 12.7 C 11.3 km/h
172 21-10-2021 14:15:00 12.7 C 8.91 g/m*3 12.7 C 25.7 km/h
173 21-10-2021 14:20:00 12.7 C 8.91 g/m*3 12.7 C 20.9 km/h
174 21-10-2021 14:25:00 12.8 C 9.07 g/m*3 12.8 C 12.9 km/h
175 21-10-2021 14:30:00 12.9 C 8.79 g/m*3 12.9 C 20.9 km/h
Sensor: Nr:Datum:Temp:Abs-Feuchte:Windchill:Wind:
Aussen-T/F 176 21-10-2021 14:35:00 13 C 8.96 g/m*3 13 C 12.9 km/h
177 21-10-2021 14:40:00 13.1 C 8.9 g/m*3 13.1 C 14.5 km/h
178 21-10-2021 14:45:00 13.2 C 8.84 g/m*3 13.2 C 12.9 km/h
179 21-10-2021 14:50:00 13.3 C 8.78 g/m*3 13.3 C 11.3 km/h
180 21-10-2021 14:55:00 13.3 C 8.78 g/m*3 13.3 C 16.1 km/h
181 21-10-2021 15:00:00 13.6 C 8.71 g/m*3 13.6 C 16.1 km/h
182 21-10-2021 15:05:00 13.6 C 8.71 g/m*3 13.6 C 19.3 km/h
183 21-10-2021 15:10:00 13.6 C 8.83 g/m*3 13.6 C 16.1 km/h
184 21-10-2021 15:15:00 13.7 C 8.88 g/m*3 13.7 C 14.5 km/h
185 21-10-2021 15:20:00 13.7 C 9.24 g/m*3 13.7 C 4.8 km/h
186 21-10-2021 15:25:00 13.6 C 9.18 g/m*3 13.6 C 8.1 km/h
187 21-10-2021 15:30:00 13.4 C 9.18 g/m*3 13.4 C 14.5 km/h
188 21-10-2021 15:35:00 13.2 C 8.96 g/m*3 13.2 C 9.7 km/h
189 21-10-2021 15:40:00 13 C 8.96 g/m*3 13 C 8.1 km/h
190 21-10-2021 15:45:00 12.9 C 8.79 g/m*3 12.9 C 14.5 km/h
191 21-10-2021 15:50:00 12.8 C 8.85 g/m*3 12.8 C 16.1 km/h
192 21-10-2021 15:55:00 12.8 C 8.74 g/m*3 12.8 C 24.1 km/h
193 21-10-2021 16:00:00 12.8 C 8.62 g/m*3 12.8 C 24.1 km/h
194 21-10-2021 16:05:00 12.9 C 8.68 g/m*3 12.9 C 12.9 km/h
195 21-10-2021 16:10:00 13 C 8.73 g/m*3 13 C 11.3 km/h
196 21-10-2021 16:15:00 13 C 8.85 g/m*3 13 C 9.7 km/h
197 21-10-2021 16:20:00 13 C 8.73 g/m*3 13 C 16.1 km/h
198 21-10-2021 16:25:00 12.9 C 8.68 g/m*3 12.9 C 11.3 km/h
199 21-10-2021 16:30:00 12.9 C 8.79 g/m*3 12.9 C 11.3 km/h
200 21-10-2021 16:35:00 12.9 C 8.68 g/m*3 12.9 C 12.9 km/h
Sensor: Nr:Datum:Temp:Abs-Feuchte:Windchill:Wind:
Aussen-T/F 201 21-10-2021 16:40:00 13.1 C 8.67 g/m*3 13.1 C 14.5 km/h
202 21-10-2021 16:45:00 13.1 C 8.79 g/m*3 13.1 C 24.1 km/h
203 21-10-2021 16:50:00 13.1 C 8.67 g/m*3 13.1 C 24.1 km/h
204 21-10-2021 16:55:00 13 C 8.73 g/m*3 13 C 20.9 km/h
205 21-10-2021 17:00:00 12.8 C 8.85 g/m*3 12.8 C 19.3 km/h
206 21-10-2021 17:05:00 12.5 C 9.02 g/m*3 12.5 C 14.5 km/h
207 21-10-2021 17:10:00 12.2 C 9.06 g/m*3 12.2 C 19.3 km/h
208 21-10-2021 17:15:00 11.9 C 9 g/m*3 11.9 C 20.9 km/h
209 21-10-2021 17:20:00 11.2 C 8.31 g/m*3 11.2 C 24.1 km/h
210 21-10-2021 17:25:00 10.3 C 8.14 g/m*3 8.34 C 14.5 km/h
211 21-10-2021 17:30:00 9.7 C 8.11 g/m*3 8.33 C 9.7 km/h
212 21-10-2021 17:35:00 9.4 C 8.05 g/m*3 6.86 C 17.7 km/h
213 21-10-2021 17:40:00 9.2 C 7.95 g/m*3 6.99 C 14.5 km/h
214 21-10-2021 17:45:00 9.1 C 7.9 g/m*3 7.09 C 12.9 km/h
215 21-10-2021 17:50:00 9.1 C 7.99 g/m*3 7.61 C 9.7 km/h
216 21-10-2021 17:55:00 9 C 8.02 g/m*3 7.81 C 8.1 km/h
217 21-10-2021 18:00:00 8.9 C 7.97 g/m*3 6.85 C 12.9 km/h
218 21-10-2021 18:05:00 8.8 C 7.92 g/m*3 6.97 C 11.3 km/h
219 21-10-2021 18:10:00 8.7 C 7.96 g/m*3 7.87 C 6.4 km/h
220 21-10-2021 18:15:00 8.7 C 7.96 g/m*3 7.87 C 6.4 km/h
221 21-10-2021 18:20:00 8.6 C 7.91 g/m*3 7.75 C 6.4 km/h
222 21-10-2021 18:25:00 8.6 C 7.91 g/m*3 7.75 C 6.4 km/h
223 21-10-2021 18:30:00 8.5 C 7.85 g/m*3 7.22 C 8.1 km/h
224 21-10-2021 18:35:00 8.4 C 7.8 g/m*3 7.52 C 6.4 km/h
225 21-10-2021 18:40:00 8.3 C 7.75 g/m*3 6.99 C 8.1 km/h
Sensor: Nr:Datum:Temp:Abs-Feuchte:Windchill:Wind:
Aussen-T/F 226 21-10-2021 18:45:00 8.3 C 7.84 g/m*3 6.66 C 9.7 km/h
227 21-10-2021 18:50:00 8.3 C 7.84 g/m*3 6.99 C 8.1 km/h
228 21-10-2021 18:55:00 8.3 C 7.75 g/m*3 6.37 C 11.3 km/h
229 21-10-2021 19:00:00 8.3 C 7.75 g/m*3 6.66 C 9.7 km/h
230 21-10-2021 19:05:00 8.3 C 7.75 g/m*3 8.3 C 4.8 km/h
231 21-10-2021 19:10:00 8.3 C 7.75 g/m*3 7.41 C 6.4 km/h
232 21-10-2021 19:15:00 8.3 C 7.84 g/m*3 8.3 C 3.2 km/h
233 21-10-2021 19:20:00 8.3 C 7.84 g/m*3 8.3 C 1.6 km/h
234 21-10-2021 19:25:00 8.3 C 7.84 g/m*3 7.41 C 6.4 km/h
235 21-10-2021 19:30:00 8.3 C 7.84 g/m*3 8.3 C 4.8 km/h
236 21-10-2021 19:35:00 8.3 C 7.84 g/m*3 8.3 C 4.8 km/h
237 21-10-2021 19:40:00 8.3 C 7.84 g/m*3 8.3 C 4.8 km/h
238 21-10-2021 19:45:00 8.3 C 7.84 g/m*3 6.99 C 8.1 km/h
239 21-10-2021 19:50:00 8.3 C 7.84 g/m*3 6.66 C 9.7 km/h
240 21-10-2021 19:55:00 8.2 C 7.79 g/m*3 8.2 C 3.2 km/h
241 21-10-2021 20:00:00 8.2 C 7.79 g/m*3 7.29 C 6.4 km/h
242 21-10-2021 20:05:00 8.2 C 7.79 g/m*3 8.2 C 3.2 km/h
243 21-10-2021 20:10:00 8.2 C 7.87 g/m*3 7.29 C 6.4 km/h
244 21-10-2021 20:15:00 8.2 C 7.87 g/m*3 8.2 C 3.2 km/h
245 21-10-2021 20:20:00 8.2 C 7.87 g/m*3 8.2 C 4.8 km/h
246 21-10-2021 20:25:00 8.1 C 7.82 g/m*3 8.1 C 3.2 km/h
247 21-10-2021 20:30:00 8.1 C 7.82 g/m*3 6.75 C 8.1 km/h
248 21-10-2021 20:35:00 7.9 C 7.72 g/m*3 7.9 C 4.8 km/h
249 21-10-2021 20:40:00 7.9 C 7.72 g/m*3 7.9 C 4.8 km/h
250 21-10-2021 20:45:00 7.8 C 7.67 g/m*3 7.8 C 3.2 km/h
Sensor: Nr:Datum:Temp:Abs-Feuchte:Windchill:Wind:
Aussen-T/F 251 21-10-2021 20:50:00 7.7 C 7.62 g/m*3 7.7 C 3.2 km/h
252 21-10-2021 20:55:00 7.6 C 7.57 g/m*3 6.6 C 6.4 km/h
253 21-10-2021 21:00:00 7.5 C 7.52 g/m*3 7.5 C 3.2 km/h
254 21-10-2021 21:05:00 7.4 C 7.48 g/m*3 7.4 C 3.2 km/h
255 21-10-2021 21:10:00 7.3 C 7.43 g/m*3 7.3 C 3.2 km/h
256 21-10-2021 21:15:00 7.2 C 7.38 g/m*3 7.2 C 1.6 km/h
257 21-10-2021 21:20:00 7.2 C 7.38 g/m*3 7.2 C 0 km/h
258 21-10-2021 21:25:00 7 C 7.28 g/m*3 7 C 3.2 km/h
259 21-10-2021 21:30:00 6.9 C 7.24 g/m*3 6.9 C 4.8 km/h
260 21-10-2021 21:35:00 6.8 C 7.19 g/m*3 6.8 C 4.8 km/h
261 21-10-2021 21:40:00 6.7 C 7.14 g/m*3 6.7 C 4.8 km/h
262 21-10-2021 21:45:00 6.7 C 7.14 g/m*3 6.7 C 0 km/h
263 21-10-2021 21:50:00 6.6 C 7.1 g/m*3 6.6 C 3.2 km/h
264 21-10-2021 21:55:00 6.4 C 7 g/m*3 6.4 C 1.6 km/h
265 21-10-2021 22:00:00 6.4 C 7 g/m*3 6.4 C 1.6 km/h
266 21-10-2021 22:05:00 6.3 C 6.96 g/m*3 6.3 C 3.2 km/h
267 21-10-2021 22:10:00 6.2 C 6.91 g/m*3 6.2 C 3.2 km/h
268 21-10-2021 22:15:00 6.2 C 6.91 g/m*3 6.2 C 4.8 km/h
269 21-10-2021 22:20:00 6.1 C 6.87 g/m*3 6.1 C 3.2 km/h
270 21-10-2021 22:25:00 6.1 C 6.87 g/m*3 6.1 C 4.8 km/h
271 21-10-2021 22:30:00 6.1 C 6.87 g/m*3 6.1 C 3.2 km/h
272 21-10-2021 22:35:00 6.1 C 6.94 g/m*3 6.1 C 4.8 km/h
273 21-10-2021 22:40:00 6.1 C 6.94 g/m*3 6.1 C 3.2 km/h
274 21-10-2021 22:45:00 6 C 6.9 g/m*3 6 C 1.6 km/h
275 21-10-2021 22:50:00 6 C 6.9 g/m*3 6 C 1.6 km/h
Sensor: Nr:Datum:Temp:Abs-Feuchte:Windchill:Wind:
Aussen-T/F 276 21-10-2021 22:55:00 5.9 C 6.85 g/m*3 5.9 C 0 km/h
277 21-10-2021 23:00:00 5.8 C 6.81 g/m*3 5.8 C 3.2 km/h
278 21-10-2021 23:05:00 5.7 C 6.69 g/m*3 5.7 C 0 km/h
279 21-10-2021 23:10:00 5.6 C 6.65 g/m*3 5.6 C 1.6 km/h
280 21-10-2021 23:15:00 5.6 C 6.72 g/m*3 5.6 C 1.6 km/h
281 21-10-2021 23:20:00 5.5 C 6.67 g/m*3 5.5 C 0 km/h
282 21-10-2021 23:25:00 5.4 C 6.56 g/m*3 5.4 C 1.6 km/h
283 21-10-2021 23:30:00 5.4 C 6.63 g/m*3 5.4 C 1.6 km/h
284 21-10-2021 23:35:00 5.3 C 6.58 g/m*3 5.3 C 0 km/h
285 21-10-2021 23:40:00 5.2 C 6.54 g/m*3 5.2 C 0 km/h
286 21-10-2021 23:45:00 5.2 C 6.54 g/m*3 5.2 C 0 km/h
287 21-10-2021 23:50:00 5.1 C 6.5 g/m*3 5.1 C 0 km/h
288 21-10-2021 23:55:00 5 C 6.46 g/m*3 5 C 0 km/h
289 22-10-2021 00:00:00 4.9 C 6.41 g/m*3 4.9 C 0 km/h
290 22-10-2021 00:05:00 4.9 C 6.41 g/m*3 4.9 C 0 km/h
291 22-10-2021 00:10:00 4.9 C 6.41 g/m*3 4.9 C 0 km/h
292 22-10-2021 00:15:00 4.8 C 6.37 g/m*3 4.8 C 0 km/h
293 22-10-2021 00:20:00 4.8 C 6.37 g/m*3 4.8 C 3.2 km/h
294 22-10-2021 00:25:00 4.8 C 6.37 g/m*3 4.8 C 1.6 km/h
295 22-10-2021 00:30:00 4.8 C 6.37 g/m*3 4.8 C 0 km/h
296 22-10-2021 00:35:00 4.8 C 6.37 g/m*3 4.8 C 1.6 km/h
297 22-10-2021 00:40:00 4.8 C 6.37 g/m*3 4.8 C 0 km/h
298 22-10-2021 00:45:00 4.8 C 6.37 g/m*3 4.8 C 3.2 km/h
299 22-10-2021 00:50:00 4.8 C 6.37 g/m*3 4.8 C 3.2 km/h
300 22-10-2021 00:55:00 4.8 C 6.37 g/m*3 4.8 C 3.2 km/h
Sensor: Nr:Datum:Temp:Abs-Feuchte:Windchill:Wind:
Aussen-T/F 301 22-10-2021 01:00:00 4.8 C 6.37 g/m*3 4.8 C 0 km/h
302 22-10-2021 01:05:00 4.7 C 6.33 g/m*3 4.7 C 0 km/h
303 22-10-2021 01:10:00 4.7 C 6.33 g/m*3 4.7 C 1.6 km/h
304 22-10-2021 01:15:00 4.7 C 6.33 g/m*3 4.7 C 3.2 km/h
305 22-10-2021 01:20:00 4.7 C 6.33 g/m*3 4.7 C 0 km/h
306 22-10-2021 01:25:00 4.6 C 6.29 g/m*3 4.6 C 3.2 km/h
307 22-10-2021 01:30:00 4.6 C 6.29 g/m*3 4.6 C 4.8 km/h
308 22-10-2021 01:35:00 4.6 C 6.29 g/m*3 4.6 C 4.8 km/h
309 22-10-2021 01:40:00 4.7 C 6.33 g/m*3 4.7 C 0 km/h
310 22-10-2021 01:45:00 4.7 C 6.39 g/m*3 4.7 C 0 km/h
311 22-10-2021 01:50:00 4.7 C 6.39 g/m*3 4.7 C 0 km/h
312 22-10-2021 01:55:00 4.8 C 6.44 g/m*3 4.8 C 0 km/h
313 22-10-2021 02:00:00 4.7 C 6.39 g/m*3 4.7 C 0 km/h
314 22-10-2021 02:05:00 4.7 C 6.39 g/m*3 4.7 C 1.6 km/h
315 22-10-2021 02:10:00 4.6 C 6.29 g/m*3 4.6 C 3.2 km/h
316 22-10-2021 02:15:00 4.6 C 6.29 g/m*3 4.6 C 1.6 km/h
317 22-10-2021 02:20:00 4.5 C 6.31 g/m*3 4.5 C 1.6 km/h
318 22-10-2021 02:25:00 4.4 C 6.27 g/m*3 4.4 C 1.6 km/h
319 22-10-2021 02:30:00 4.4 C 6.2 g/m*3 4.4 C 0 km/h
320 22-10-2021 02:35:00 4.4 C 6.2 g/m*3 4.4 C 0 km/h
321 22-10-2021 02:40:00 4.4 C 6.27 g/m*3 4.4 C 3.2 km/h
322 22-10-2021 02:45:00 4.4 C 6.27 g/m*3 4.4 C 3.2 km/h
323 22-10-2021 02:50:00 4.4 C 6.27 g/m*3 4.4 C 4.8 km/h
324 22-10-2021 02:55:00 4.6 C 6.35 g/m*3 4.6 C 3.2 km/h
325 22-10-2021 03:00:00 4.6 C 6.35 g/m*3 4.6 C 3.2 km/h
Sensor: Nr:Datum:Temp:Abs-Feuchte:Windchill:Wind:
Aussen-T/F 326 22-10-2021 03:05:00 4.7 C 6.39 g/m*3 3.25 C 6.4 km/h
327 22-10-2021 03:10:00 4.8 C 6.44 g/m*3 4.8 C 4.8 km/h
328 22-10-2021 03:15:00 5.2 C 6.61 g/m*3 3.34 C 8.1 km/h
329 22-10-2021 03:20:00 5.3 C 6.65 g/m*3 3.46 C 8.1 km/h
330 22-10-2021 03:25:00 5.4 C 6.7 g/m*3 5.4 C 4.8 km/h
331 22-10-2021 03:30:00 5.4 C 6.7 g/m*3 4.06 C 6.4 km/h
332 22-10-2021 03:35:00 5.4 C 6.7 g/m*3 3.58 C 8.1 km/h
333 22-10-2021 03:40:00 5.3 C 6.65 g/m*3 3.08 C 9.7 km/h
334 22-10-2021 03:45:00 5.2 C 6.61 g/m*3 5.2 C 0 km/h
335 22-10-2021 03:50:00 5.2 C 6.61 g/m*3 5.2 C 3.2 km/h
336 22-10-2021 03:55:00 5.1 C 6.5 g/m*3 3.23 C 8.1 km/h
337 22-10-2021 04:00:00 5 C 6.46 g/m*3 3.59 C 6.4 km/h
338 22-10-2021 04:05:00 5 C 6.46 g/m*3 3.11 C 8.1 km/h
339 22-10-2021 04:10:00 4.9 C 6.41 g/m*3 4.9 C 0 km/h
340 22-10-2021 04:15:00 4.8 C 6.37 g/m*3 4.8 C 0 km/h
341 22-10-2021 04:20:00 4.7 C 6.33 g/m*3 4.7 C 3.2 km/h
342 22-10-2021 04:25:00 4.7 C 6.33 g/m*3 4.7 C 3.2 km/h
343 22-10-2021 04:30:00 4.7 C 6.33 g/m*3 3.25 C 6.4 km/h
344 22-10-2021 04:35:00 4.8 C 6.44 g/m*3 3.36 C 6.4 km/h
345 22-10-2021 04:40:00 4.8 C 6.44 g/m*3 4.8 C 1.6 km/h
346 22-10-2021 04:45:00 4.8 C 6.44 g/m*3 3.36 C 6.4 km/h
347 22-10-2021 04:50:00 4.8 C 6.44 g/m*3 2.49 C 9.7 km/h
348 22-10-2021 04:55:00 4.8 C 6.44 g/m*3 3.36 C 6.4 km/h
349 22-10-2021 05:00:00 4.9 C 6.48 g/m*3 2.99 C 8.1 km/h
350 22-10-2021 05:05:00 4.9 C 6.41 g/m*3 2.99 C 8.1 km/h
Sensor: Nr:Datum:Temp:Abs-Feuchte:Windchill:Wind:
Aussen-T/F 351 22-10-2021 05:10:00 4.9 C 6.41 g/m*3 2.61 C 9.7 km/h
352 22-10-2021 05:15:00 4.9 C 6.41 g/m*3 4.9 C 4.8 km/h
353 22-10-2021 05:20:00 4.9 C 6.41 g/m*3 2.99 C 8.1 km/h
354 22-10-2021 05:25:00 4.8 C 6.37 g/m*3 3.36 C 6.4 km/h
355 22-10-2021 05:30:00 4.8 C 6.37 g/m*3 4.8 C 4.8 km/h
356 22-10-2021 05:35:00 4.8 C 6.37 g/m*3 4.8 C 4.8 km/h
357 22-10-2021 05:40:00 4.7 C 6.33 g/m*3 4.7 C 4.8 km/h
358 22-10-2021 05:45:00 4.7 C 6.33 g/m*3 4.7 C 3.2 km/h
359 22-10-2021 05:50:00 4.7 C 6.33 g/m*3 2.03 C 11.3 km/h
360 22-10-2021 05:55:00 4.7 C 6.33 g/m*3 4.7 C 4.8 km/h
361 22-10-2021 06:00:00 4.7 C 6.33 g/m*3 4.7 C 4.8 km/h
362 22-10-2021 06:05:00 4.7 C 6.33 g/m*3 4.7 C 4.8 km/h
363 22-10-2021 06:10:00 4.6 C 6.29 g/m*3 4.6 C 1.6 km/h
364 22-10-2021 06:15:00 4.6 C 6.29 g/m*3 4.6 C 1.6 km/h
365 22-10-2021 06:20:00 4.5 C 6.24 g/m*3 4.5 C 3.2 km/h
366 22-10-2021 06:25:00 4.4 C 6.2 g/m*3 4.4 C 0 km/h
367 22-10-2021 06:30:00 4.4 C 6.2 g/m*3 4.4 C 3.2 km/h
368 22-10-2021 06:35:00 4.4 C 6.2 g/m*3 4.4 C 1.6 km/h
369 22-10-2021 06:40:00 4.4 C 6.2 g/m*3 4.4 C 4.8 km/h
370 22-10-2021 07:30:00 4.2 C 6.12 g/m*3 4.2 C 4.8 km/h
371 22-10-2021 07:35:00 4.3 C 6.16 g/m*3 1.55 C 11.3 km/h
372 22-10-2021 07:40:00 4.4 C 6.2 g/m*3 2.9 C 6.4 km/h
373 22-10-2021 07:45:00 4.5 C 6.24 g/m*3 1.79 C 11.3 km/h
374 22-10-2021 07:50:00 4.5 C 6.24 g/m*3 1.79 C 11.3 km/h
375 22-10-2021 07:55:00 4.5 C 6.24 g/m*3 0.74 C 17.7 km/h
Sensor: Nr:Datum:Temp:Abs-Feuchte:Windchill:Wind:
Aussen-T/F 376 22-10-2021 08:00:00 4.6 C 6.29 g/m*3 0.86 C 17.7 km/h
377 22-10-2021 08:05:00 4.5 C 6.24 g/m*3 2.52 C 8.1 km/h
378 22-10-2021 08:10:00 4.4 C 6.14 g/m*3 4.4 C 3.2 km/h
379 22-10-2021 08:15:00 4.4 C 6.14 g/m*3 4.4 C 4.8 km/h
380 22-10-2021 08:20:00 4.4 C 6.14 g/m*3 2.9 C 6.4 km/h
381 22-10-2021 08:25:00 4.4 C 6.14 g/m*3 2.01 C 9.7 km/h
382 22-10-2021 08:30:00 4.5 C 6.24 g/m*3 1.48 C 12.9 km/h
383 22-10-2021 08:35:00 4.6 C 6.22 g/m*3 2.64 C 8.1 km/h
384 22-10-2021 08:40:00 4.6 C 6.22 g/m*3 2.64 C 8.1 km/h
385 22-10-2021 08:45:00 4.7 C 6.26 g/m*3 2.76 C 8.1 km/h
386 22-10-2021 08:50:00 4.8 C 6.3 g/m*3 2.49 C 9.7 km/h
387 22-10-2021 08:55:00 4.8 C 6.3 g/m*3 2.15 C 11.3 km/h
388 22-10-2021 09:00:00 4.8 C 6.24 g/m*3 1.85 C 12.9 km/h
389 22-10-2021 09:05:00 4.8 C 6.24 g/m*3 1.85 C 12.9 km/h
390 22-10-2021 09:10:00 4.9 C 6.28 g/m*3 2.61 C 9.7 km/h
391 22-10-2021 09:15:00 4.9 C 6.28 g/m*3 1.97 C 12.9 km/h
392 22-10-2021 09:20:00 4.9 C 6.28 g/m*3 2.61 C 9.7 km/h
393 22-10-2021 09:25:00 5.1 C 6.36 g/m*3 2.22 C 12.9 km/h
394 22-10-2021 09:30:00 5.1 C 6.29 g/m*3 2.84 C 9.7 km/h
395 22-10-2021 09:35:00 5.1 C 6.29 g/m*3 3.23 C 8.1 km/h
396 22-10-2021 09:40:00 5.2 C 6.33 g/m*3 2.63 C 11.3 km/h
397 22-10-2021 09:45:00 5.2 C 6.33 g/m*3 2.63 C 11.3 km/h
398 22-10-2021 09:50:00 5.2 C 6.27 g/m*3 2.34 C 12.9 km/h
399 22-10-2021 09:55:00 5.3 C 6.31 g/m*3 3.94 C 6.4 km/h
400 22-10-2021 10:00:00 5.3 C 6.31 g/m*3 3.08 C 9.7 km/h
Sensor: Nr:Datum:Temp:Abs-Feuchte:Windchill:Wind:
Aussen-T/F 401 22-10-2021 10:05:00 5.3 C 6.31 g/m*3 2.75 C 11.3 km/h
402 22-10-2021 10:10:00 5.4 C 6.35 g/m*3 2.87 C 11.3 km/h
403 22-10-2021 10:15:00 5.5 C 6.39 g/m*3 2.99 C 11.3 km/h
404 22-10-2021 10:20:00 5.6 C 6.43 g/m*3 2.33 C 16.1 km/h
405 22-10-2021 10:25:00 5.8 C 6.45 g/m*3 1.97 C 20.9 km/h
406 22-10-2021 10:30:00 5.9 C 6.42 g/m*3 2.7 C 16.1 km/h
407 22-10-2021 10:35:00 6.1 C 6.43 g/m*3 2.35 C 20.9 km/h
408 22-10-2021 10:40:00 6.2 C 6.47 g/m*3 2.48 C 20.9 km/h
409 22-10-2021 10:45:00 6.2 C 6.47 g/m*3 3.56 C 12.9 km/h
410 22-10-2021 10:50:00 6.2 C 6.47 g/m*3 3.3 C 14.5 km/h
411 22-10-2021 10:55:00 6.3 C 6.51 g/m*3 3.2 C 16.1 km/h
412 22-10-2021 11:00:00 6.3 C 6.51 g/m*3 2.98 C 17.7 km/h
413 22-10-2021 11:05:00 6.4 C 6.56 g/m*3 3.8 C 12.9 km/h
414 22-10-2021 11:10:00 6.5 C 6.6 g/m*3 3.67 C 14.5 km/h
415 22-10-2021 11:15:00 6.6 C 6.64 g/m*3 4.32 C 11.3 km/h
416 22-10-2021 11:20:00 6.7 C 6.69 g/m*3 4.17 C 12.9 km/h
417 22-10-2021 11:25:00 6.8 C 6.65 g/m*3 3.82 C 16.1 km/h
418 22-10-2021 11:30:00 6.9 C 6.7 g/m*3 4.41 C 12.9 km/h
419 22-10-2021 11:35:00 7 C 6.74 g/m*3 4.8 C 11.3 km/h
420 22-10-2021 11:40:00 7.1 C 6.79 g/m*3 4.92 C 11.3 km/h
421 22-10-2021 11:45:00 7.2 C 6.83 g/m*3 4.11 C 17.7 km/h
422 22-10-2021 11:50:00 7.3 C 6.79 g/m*3 4.9 C 12.9 km/h
423 22-10-2021 11:55:00 7.3 C 6.79 g/m*3 4.9 C 12.9 km/h
424 22-10-2021 12:00:00 7.4 C 6.84 g/m*3 5.02 C 12.9 km/h
425 22-10-2021 12:05:00 7.5 C 6.88 g/m*3 4.48 C 17.7 km/h
Sensor: Nr:Datum:Temp:Abs-Feuchte:Windchill:Wind:
Aussen-T/F 426 22-10-2021 12:10:00 7.6 C 6.85 g/m*3 4.81 C 16.1 km/h
427 22-10-2021 12:15:00 7.8 C 6.94 g/m*3 5.51 C 12.9 km/h
428 22-10-2021 12:20:00 7.9 C 6.98 g/m*3 4.8 C 19.3 km/h
429 22-10-2021 12:25:00 8.2 C 7.03 g/m*3 5.76 C 14.5 km/h
430 22-10-2021 12:30:00 8.3 C 7 g/m*3 5.31 C 19.3 km/h
431 22-10-2021 12:35:00 8.4 C 7.04 g/m*3 5.27 C 20.9 km/h
432 22-10-2021 12:40:00 8.6 C 7.13 g/m*3 6.25 C 14.5 km/h
433 22-10-2021 12:45:00 8.8 C 7.14 g/m*3 6.11 C 17.7 km/h
434 22-10-2021 12:50:00 9.1 C 7.28 g/m*3 7.09 C 12.9 km/h
435 22-10-2021 12:55:00 9.3 C 7.37 g/m*3 6.92 C 16.1 km/h
436 22-10-2021 13:00:00 9.6 C 7.42 g/m*3 7.29 C 16.1 km/h
437 22-10-2021 13:05:00 9.7 C 7.38 g/m*3 7.23 C 17.7 km/h
438 22-10-2021 13:10:00 9.7 C 7.38 g/m*3 7.61 C 14.5 km/h
439 22-10-2021 13:15:00 9.7 C 7.38 g/m*3 7.82 C 12.9 km/h
440 22-10-2021 13:20:00 9.8 C 7.42 g/m*3 7.54 C 16.1 km/h
441 22-10-2021 13:25:00 9.9 C 7.56 g/m*3 8.56 C 9.7 km/h
442 22-10-2021 13:30:00 9.9 C 7.47 g/m*3 7.48 C 17.7 km/h
443 22-10-2021 13:35:00 10.1 C 7.56 g/m*3 8.31 C 12.9 km/h
444 22-10-2021 13:40:00 10.2 C 7.42 g/m*3 7.4 C 22.5 km/h
445 22-10-2021 13:45:00 10.3 C 7.47 g/m*3 7.53 C 22.5 km/h
446 22-10-2021 13:50:00 10.5 C 7.57 g/m*3 8.4 C 16.1 km/h
447 22-10-2021 13:55:00 10.6 C 7.61 g/m*3 8.53 C 16.1 km/h
448 22-10-2021 14:00:00 10.6 C 7.61 g/m*3 8.05 C 20.9 km/h
449 22-10-2021 14:05:00 10.6 C 7.61 g/m*3 8.92 C 12.9 km/h
450 22-10-2021 14:10:00 10.6 C 7.61 g/m*3 8.92 C 12.9 km/h
Sensor: Nr:Datum:Temp:Abs-Feuchte:Windchill:Wind:
Aussen-T/F 451 22-10-2021 14:15:00 10.7 C 7.76 g/m*3 8.84 C 14.5 km/h
452 22-10-2021 14:20:00 10.7 C 7.76 g/m*3 8.65 C 16.1 km/h
453 22-10-2021 14:25:00 10.8 C 7.71 g/m*3 9.16 C 12.9 km/h
454 22-10-2021 14:30:00 10.9 C 7.56 g/m*3 9.51 C 11.3 km/h
455 22-10-2021 14:35:00 10.9 C 7.36 g/m*3 9.51 C 11.3 km/h
456 22-10-2021 14:40:00 11.1 C 7.25 g/m*3 11.1 C 14.5 km/h
457 22-10-2021 14:45:00 11.3 C 7.34 g/m*3 11.3 C 20.9 km/h
458 22-10-2021 14:50:00 11.4 C 7.19 g/m*3 11.4 C 14.5 km/h
459 22-10-2021 14:55:00 11.6 C 7.17 g/m*3 11.6 C 25.7 km/h
460 22-10-2021 15:00:00 11.7 C 7.11 g/m*3 11.7 C 25.7 km/h
461 22-10-2021 15:05:00 11.7 C 7.22 g/m*3 11.7 C 22.5 km/h
462 22-10-2021 15:10:00 11.7 C 7.22 g/m*3 11.7 C 11.3 km/h
463 22-10-2021 15:15:00 11.7 C 7.32 g/m*3 11.7 C 11.3 km/h
464 22-10-2021 15:20:00 11.7 C 7.22 g/m*3 11.7 C 11.3 km/h
465 22-10-2021 15:25:00 11.7 C 7.22 g/m*3 11.7 C 11.3 km/h
466 22-10-2021 15:30:00 11.6 C 7.07 g/m*3 11.6 C 12.9 km/h
467 22-10-2021 15:35:00 11.6 C 7.07 g/m*3 11.6 C 17.7 km/h
468 22-10-2021 15:40:00 11.5 C 7.13 g/m*3 11.5 C 11.3 km/h
469 22-10-2021 15:45:00 11.5 C 7.02 g/m*3 11.5 C 16.1 km/h
470 22-10-2021 15:50:00 11.4 C 6.98 g/m*3 11.4 C 14.5 km/h
471 22-10-2021 15:55:00 11.4 C 7.08 g/m*3 11.4 C 9.7 km/h
472 22-10-2021 16:00:00 11.4 C 7.08 g/m*3 11.4 C 14.5 km/h
473 22-10-2021 16:05:00 11.4 C 7.08 g/m*3 11.4 C 17.7 km/h
474 22-10-2021 16:10:00 11.4 C 7.08 g/m*3 11.4 C 11.3 km/h
475 22-10-2021 16:15:00 11.4 C 6.98 g/m*3 11.4 C 20.9 km/h
Sensor: Nr:Datum:Temp:Abs-Feuchte:Windchill:Wind:
Aussen-T/F 476 22-10-2021 16:20:00 11.4 C 6.77 g/m*3 11.4 C 16.1 km/h
477 22-10-2021 16:25:00 11.4 C 6.88 g/m*3 11.4 C 20.9 km/h
478 22-10-2021 16:30:00 11.5 C 7.02 g/m*3 11.5 C 14.5 km/h
479 22-10-2021 16:35:00 11.4 C 6.98 g/m*3 11.4 C 14.5 km/h
480 22-10-2021 16:40:00 11.4 C 6.98 g/m*3 11.4 C 12.9 km/h
481 22-10-2021 16:45:00 11.3 C 6.94 g/m*3 11.3 C 14.5 km/h
482 22-10-2021 16:50:00 11.3 C 6.94 g/m*3 11.3 C 17.7 km/h
483 22-10-2021 16:55:00 11.3 C 6.94 g/m*3 11.3 C 14.5 km/h
484 22-10-2021 17:00:00 11.3 C 6.94 g/m*3 11.3 C 12.9 km/h
485 22-10-2021 17:05:00 11.3 C 7.04 g/m*3 11.3 C 12.9 km/h
486 22-10-2021 17:10:00 11.3 C 7.14 g/m*3 11.3 C 11.3 km/h
487 22-10-2021 17:15:00 11.2 C 7.1 g/m*3 11.2 C 8.1 km/h
488 22-10-2021 17:20:00 11.2 C 7.1 g/m*3 11.2 C 12.9 km/h
489 22-10-2021 17:25:00 11.2 C 7.1 g/m*3 11.2 C 8.1 km/h
490 22-10-2021 17:30:00 11.2 C 7.1 g/m*3 11.2 C 9.7 km/h
491 22-10-2021 17:35:00 11.1 C 7.25 g/m*3 11.1 C 11.3 km/h
492 22-10-2021 17:40:00 11.1 C 7.15 g/m*3 11.1 C 11.3 km/h
493 22-10-2021 17:45:00 11.2 C 7.1 g/m*3 11.2 C 11.3 km/h
494 22-10-2021 17:50:00 11.2 C 7.2 g/m*3 11.2 C 14.5 km/h
495 22-10-2021 17:55:00 11.2 C 7.1 g/m*3 11.2 C 20.9 km/h
496 22-10-2021 18:00:00 11.2 C 7.2 g/m*3 11.2 C 12.9 km/h
497 22-10-2021 18:05:00 11.2 C 7.2 g/m*3 11.2 C 16.1 km/h
498 22-10-2021 18:10:00 11.1 C 7.15 g/m*3 11.1 C 9.7 km/h
499 22-10-2021 18:15:00 11 C 7.21 g/m*3 9.88 C 9.7 km/h
500 22-10-2021 18:20:00 10.8 C 7.22 g/m*3 8.3 C 20.9 km/h
Sensor: Nr:Datum:Temp:Abs-Feuchte:Windchill:Wind:
Aussen-T/F 501 22-10-2021 18:25:00 10.7 C 7.17 g/m*3 9.04 C 12.9 km/h
502 22-10-2021 18:30:00 10.6 C 7.22 g/m*3 10.06 C 6.4 km/h
503 22-10-2021 18:35:00 10.6 C 7.42 g/m*3 9.4 C 9.7 km/h
504 22-10-2021 18:40:00 10.4 C 7.42 g/m*3 9.16 C 9.7 km/h
505 22-10-2021 18:45:00 10.3 C 7.47 g/m*3 8.78 C 11.3 km/h
506 22-10-2021 18:50:00 10.2 C 7.52 g/m*3 8.66 C 11.3 km/h
507 22-10-2021 18:55:00 10.1 C 7.47 g/m*3 8.54 C 11.3 km/h
508 22-10-2021 19:00:00 9.9 C 7.38 g/m*3 8.3 C 11.3 km/h
509 22-10-2021 19:05:00 9.8 C 7.42 g/m*3 8.18 C 11.3 km/h
510 22-10-2021 19:10:00 9.7 C 7.38 g/m*3 7.82 C 12.9 km/h
511 22-10-2021 19:15:00 9.7 C 7.38 g/m*3 8.33 C 9.7 km/h
512 22-10-2021 19:20:00 9.7 C 7.38 g/m*3 9.02 C 6.4 km/h
513 22-10-2021 19:25:00 9.7 C 7.38 g/m*3 8.63 C 8.1 km/h
514 22-10-2021 19:30:00 9.7 C 7.47 g/m*3 8.33 C 9.7 km/h
515 22-10-2021 19:35:00 9.7 C 7.47 g/m*3 8.63 C 8.1 km/h
516 22-10-2021 19:40:00 9.7 C 7.47 g/m*3 8.33 C 9.7 km/h
517 22-10-2021 19:45:00 9.8 C 7.52 g/m*3 8.75 C 8.1 km/h
518 22-10-2021 19:50:00 9.8 C 7.52 g/m*3 8.18 C 11.3 km/h
519 22-10-2021 19:55:00 9.8 C 7.52 g/m*3 7.54 C 16.1 km/h
520 22-10-2021 20:00:00 9.8 C 7.52 g/m*3 8.18 C 11.3 km/h
521 22-10-2021 20:05:00 9.8 C 7.52 g/m*3 7.73 C 14.5 km/h
522 22-10-2021 20:10:00 9.8 C 7.52 g/m*3 8.75 C 8.1 km/h
523 22-10-2021 20:15:00 9.8 C 7.42 g/m*3 7.94 C 12.9 km/h
524 22-10-2021 20:20:00 9.9 C 7.47 g/m*3 8.56 C 9.7 km/h
525 22-10-2021 20:25:00 9.9 C 7.47 g/m*3 7.85 C 14.5 km/h
Sensor: Nr:Datum:Temp:Abs-Feuchte:Windchill:Wind:
Aussen-T/F 526 22-10-2021 20:30:00 9.9 C 7.38 g/m*3 8.06 C 12.9 km/h
527 22-10-2021 20:35:00 9.9 C 7.38 g/m*3 7.66 C 16.1 km/h
528 22-10-2021 20:40:00 10 C 7.42 g/m*3 8.19 C 12.9 km/h
529 22-10-2021 20:45:00 9.9 C 7.38 g/m*3 8.06 C 12.9 km/h
530 22-10-2021 20:50:00 9.9 C 7.38 g/m*3 8.06 C 12.9 km/h
531 22-10-2021 20:55:00 9.8 C 7.33 g/m*3 8.45 C 9.7 km/h
532 22-10-2021 21:00:00 9.8 C 7.33 g/m*3 7.54 C 16.1 km/h
533 22-10-2021 21:05:00 9.9 C 7.38 g/m*3 8.06 C 12.9 km/h
534 22-10-2021 21:10:00 9.9 C 7.47 g/m*3 8.3 C 11.3 km/h
535 22-10-2021 21:15:00 9.9 C 7.47 g/m*3 7.66 C 16.1 km/h
536 22-10-2021 21:20:00 9.9 C 7.47 g/m*3 8.3 C 11.3 km/h
537 22-10-2021 21:25:00 10 C 7.52 g/m*3 8.19 C 12.9 km/h
538 22-10-2021 21:30:00 10 C 7.52 g/m*3 8.42 C 11.3 km/h
539 22-10-2021 21:35:00 10 C 7.52 g/m*3 8.19 C 12.9 km/h
540 22-10-2021 21:40:00 9.9 C 7.56 g/m*3 8.87 C 8.1 km/h
541 22-10-2021 21:45:00 9.9 C 7.56 g/m*3 8.06 C 12.9 km/h
542 22-10-2021 21:50:00 9.8 C 7.61 g/m*3 9.8 C 4.8 km/h
543 22-10-2021 21:55:00 9.8 C 7.7 g/m*3 9.8 C 4.8 km/h
544 22-10-2021 22:00:00 9.7 C 7.65 g/m*3 8.63 C 8.1 km/h
545 22-10-2021 22:05:00 9.6 C 7.69 g/m*3 8.91 C 6.4 km/h
546 22-10-2021 22:10:00 9.6 C 7.79 g/m*3 9.6 C 3.2 km/h
547 22-10-2021 22:15:00 9.4 C 7.78 g/m*3 9.4 C 4.8 km/h
548 22-10-2021 22:20:00 9.3 C 7.82 g/m*3 9.3 C 0 km/h
549 22-10-2021 22:25:00 9.2 C 7.86 g/m*3 9.2 C 3.2 km/h
550 22-10-2021 22:30:00 9.1 C 7.9 g/m*3 9.1 C 3.2 km/h
Sensor: Nr:Datum:Temp:Abs-Feuchte:Windchill:Wind:
Aussen-T/F 551 22-10-2021 22:35:00 8.9 C 7.88 g/m*3 8.9 C 1.6 km/h
552 22-10-2021 22:40:00 8.9 C 7.88 g/m*3 8.9 C 3.2 km/h
553 22-10-2021 22:45:00 8.8 C 7.92 g/m*3 8.8 C 4.8 km/h
554 22-10-2021 22:50:00 8.7 C 7.87 g/m*3 8.7 C 0 km/h
555 22-10-2021 22:55:00 8.7 C 7.87 g/m*3 8.7 C 0 km/h
556 22-10-2021 23:00:00 8.7 C 7.96 g/m*3 8.7 C 3.2 km/h
557 22-10-2021 23:05:00 8.6 C 7.91 g/m*3 8.6 C 4.8 km/h
558 22-10-2021 23:10:00 8.6 C 7.91 g/m*3 8.6 C 3.2 km/h
559 22-10-2021 23:15:00 8.6 C 7.99 g/m*3 8.6 C 3.2 km/h
560 22-10-2021 23:20:00 8.6 C 7.99 g/m*3 8.6 C 1.6 km/h
561 22-10-2021 23:25:00 8.5 C 7.94 g/m*3 8.5 C 1.6 km/h
562 22-10-2021 23:30:00 8.5 C 7.94 g/m*3 8.5 C 3.2 km/h
563 22-10-2021 23:35:00 8.4 C 7.89 g/m*3 8.4 C 3.2 km/h
564 22-10-2021 23:40:00 8.4 C 7.89 g/m*3 8.4 C 4.8 km/h
565 22-10-2021 23:45:00 8.4 C 7.97 g/m*3 8.4 C 1.6 km/h
566 22-10-2021 23:50:00 8.3 C 7.92 g/m*3 8.3 C 4.8 km/h
567 22-10-2021 23:55:00 8.3 C 7.92 g/m*3 8.3 C 0 km/h
568 23-10-2021 00:00:00 8.3 C 7.84 g/m*3 8.3 C 3.2 km/h
569 23-10-2021 00:05:00 8.2 C 7.87 g/m*3 8.2 C 3.2 km/h
570 23-10-2021 00:10:00 8.1 C 7.82 g/m*3 8.1 C 4.8 km/h
571 23-10-2021 00:15:00 8.1 C 7.82 g/m*3 8.1 C 3.2 km/h
572 23-10-2021 00:20:00 8.1 C 7.82 g/m*3 8.1 C 0 km/h
573 23-10-2021 00:25:00 8.1 C 7.82 g/m*3 8.1 C 3.2 km/h
574 23-10-2021 00:30:00 8.2 C 7.87 g/m*3 8.2 C 0 km/h
575 23-10-2021 00:35:00 8.2 C 7.87 g/m*3 8.2 C 1.6 km/h
Sensor: Nr:Datum:Temp:Abs-Feuchte:Windchill:Wind:
Aussen-T/F 576 23-10-2021 00:40:00 8.2 C 7.87 g/m*3 8.2 C 3.2 km/h
577 23-10-2021 00:45:00 8.2 C 7.87 g/m*3 8.2 C 4.8 km/h
578 23-10-2021 00:50:00 8.2 C 7.87 g/m*3 8.2 C 3.2 km/h
579 23-10-2021 00:55:00 8.2 C 7.87 g/m*3 8.2 C 1.6 km/h
580 23-10-2021 01:00:00 8.2 C 7.96 g/m*3 8.2 C 1.6 km/h
581 23-10-2021 01:05:00 8.2 C 7.96 g/m*3 8.2 C 1.6 km/h
582 23-10-2021 01:10:00 8.2 C 7.96 g/m*3 8.2 C 1.6 km/h
583 23-10-2021 01:15:00 8.2 C 7.96 g/m*3 8.2 C 3.2 km/h
584 23-10-2021 01:20:00 8.2 C 7.96 g/m*3 8.2 C 1.6 km/h
585 23-10-2021 01:25:00 8.2 C 7.96 g/m*3 8.2 C 0 km/h
586 23-10-2021 01:30:00 8.1 C 7.9 g/m*3 8.1 C 0 km/h
587 23-10-2021 01:35:00 8.1 C 7.9 g/m*3 8.1 C 0 km/h
588 23-10-2021 01:40:00 7.9 C 7.8 g/m*3 7.9 C 0 km/h
589 23-10-2021 01:45:00 7.8 C 7.67 g/m*3 7.8 C 3.2 km/h
590 23-10-2021 01:50:00 7.7 C 7.62 g/m*3 7.7 C 0 km/h
591 23-10-2021 01:55:00 7.5 C 7.52 g/m*3 7.5 C 3.2 km/h
592 23-10-2021 02:00:00 7.4 C 7.48 g/m*3 7.4 C 1.6 km/h
593 23-10-2021 02:05:00 7.5 C 7.6 g/m*3 7.5 C 3.2 km/h
594 23-10-2021 02:10:00 7.5 C 7.6 g/m*3 7.5 C 1.6 km/h
595 23-10-2021 02:15:00 7.6 C 7.65 g/m*3 7.6 C 4.8 km/h
596 23-10-2021 02:20:00 7.6 C 7.65 g/m*3 7.6 C 3.2 km/h
597 23-10-2021 02:25:00 7.6 C 7.65 g/m*3 7.6 C 0 km/h
598 23-10-2021 02:30:00 7.6 C 7.65 g/m*3 7.6 C 0 km/h
599 23-10-2021 02:35:00 7.6 C 7.65 g/m*3 7.6 C 0 km/h
600 23-10-2021 02:40:00 7.5 C 7.6 g/m*3 7.5 C 3.2 km/h
Sensor: Nr:Datum:Temp:Abs-Feuchte:Windchill:Wind:
Aussen-T/F 601 23-10-2021 02:45:00 7.5 C 7.6 g/m*3 7.5 C 1.6 km/h
602 23-10-2021 02:50:00 7.4 C 7.55 g/m*3 7.4 C 1.6 km/h
603 23-10-2021 02:55:00 7.4 C 7.55 g/m*3 7.4 C 0 km/h
604 23-10-2021 03:00:00 7.4 C 7.55 g/m*3 7.4 C 0 km/h
605 23-10-2021 03:05:00 7.5 C 7.6 g/m*3 7.5 C 0 km/h
606 23-10-2021 03:10:00 7.5 C 7.6 g/m*3 7.5 C 0 km/h
607 23-10-2021 03:15:00 7.5 C 7.6 g/m*3 7.5 C 0 km/h
608 23-10-2021 03:20:00 7.5 C 7.6 g/m*3 7.5 C 3.2 km/h
609 23-10-2021 03:25:00 7.5 C 7.6 g/m*3 7.5 C 0 km/h
610 23-10-2021 03:30:00 7.6 C 7.65 g/m*3 7.6 C 0 km/h
611 23-10-2021 03:35:00 7.5 C 7.6 g/m*3 7.5 C 0 km/h
612 23-10-2021 03:40:00 7.5 C 7.6 g/m*3 7.5 C 0 km/h
613 23-10-2021 03:45:00 7.5 C 7.68 g/m*3 7.5 C 0 km/h
614 23-10-2021 03:50:00 7.5 C 7.68 g/m*3 7.5 C 0 km/h
615 23-10-2021 03:55:00 7.5 C 7.68 g/m*3 7.5 C 0 km/h
616 23-10-2021 04:00:00 7.5 C 7.68 g/m*3 7.5 C 0 km/h
617 23-10-2021 04:05:00 7.5 C 7.68 g/m*3 7.5 C 0 km/h
618 23-10-2021 04:10:00 7.5 C 7.68 g/m*3 7.5 C 0 km/h
619 23-10-2021 04:15:00 7.4 C 7.63 g/m*3 7.4 C 0 km/h
620 23-10-2021 04:20:00 7.3 C 7.51 g/m*3 7.3 C 0 km/h
621 23-10-2021 04:25:00 7.3 C 7.51 g/m*3 7.3 C 0 km/h
622 23-10-2021 04:30:00 7.2 C 7.46 g/m*3 7.2 C 0 km/h
623 23-10-2021 04:35:00 7.2 C 7.46 g/m*3 7.2 C 0 km/h
624 23-10-2021 04:40:00 7.1 C 7.41 g/m*3 7.1 C 0 km/h
625 23-10-2021 04:45:00 7.1 C 7.41 g/m*3 7.1 C 0 km/h
Sensor: Nr:Datum:Temp:Abs-Feuchte:Windchill:Wind:
Aussen-T/F 626 23-10-2021 04:50:00 7.1 C 7.41 g/m*3 7.1 C 0 km/h
627 23-10-2021 04:55:00 6.9 C 7.31 g/m*3 6.9 C 0 km/h
628 23-10-2021 05:00:00 6.9 C 7.31 g/m*3 6.9 C 0 km/h
629 23-10-2021 05:05:00 6.8 C 7.27 g/m*3 6.8 C 0 km/h
630 23-10-2021 05:10:00 6.7 C 7.22 g/m*3 6.7 C 0 km/h
631 23-10-2021 05:15:00 6.6 C 7.17 g/m*3 6.6 C 0 km/h
632 23-10-2021 05:20:00 6.5 C 7.12 g/m*3 6.5 C 0 km/h
633 23-10-2021 05:25:00 6.4 C 7.08 g/m*3 6.4 C 0 km/h
634 23-10-2021 05:30:00 6.3 C 7.03 g/m*3 6.3 C 0 km/h
635 23-10-2021 05:35:00 6.3 C 7.03 g/m*3 6.3 C 0 km/h
636 23-10-2021 05:40:00 6.2 C 6.99 g/m*3 6.2 C 0 km/h
637 23-10-2021 05:45:00 6.2 C 6.99 g/m*3 6.2 C 0 km/h
638 23-10-2021 05:50:00 6.2 C 6.99 g/m*3 6.2 C 0 km/h
639 23-10-2021 05:55:00 6.1 C 6.94 g/m*3 6.1 C 0 km/h
640 23-10-2021 06:00:00 5.9 C 6.85 g/m*3 5.9 C 0 km/h
641 23-10-2021 06:05:00 5.8 C 6.81 g/m*3 5.8 C 0 km/h
642 23-10-2021 06:10:00 5.7 C 6.76 g/m*3 5.7 C 1.6 km/h
643 23-10-2021 06:15:00 5.6 C 6.72 g/m*3 5.6 C 0 km/h
644 23-10-2021 06:20:00 5.5 C 6.67 g/m*3 5.5 C 0 km/h
645 23-10-2021 06:25:00 5.5 C 6.67 g/m*3 5.5 C 0 km/h
646 23-10-2021 06:30:00 5.5 C 6.74 g/m*3 5.5 C 0 km/h
647 23-10-2021 06:35:00 5.6 C 6.72 g/m*3 5.6 C 0 km/h
648 23-10-2021 06:40:00 5.6 C 6.79 g/m*3 5.6 C 0 km/h
649 23-10-2021 06:45:00 5.7 C 6.83 g/m*3 5.7 C 0 km/h
650 23-10-2021 06:50:00 5.8 C 6.88 g/m*3 5.8 C 0 km/h
Sensor: Nr:Datum:Temp:Abs-Feuchte:Windchill:Wind:
Aussen-T/F 651 23-10-2021 06:55:00 5.9 C 6.92 g/m*3 5.9 C 0 km/h
652 23-10-2021 07:00:00 5.9 C 6.92 g/m*3 5.9 C 0 km/h
653 23-10-2021 07:05:00 6 C 6.97 g/m*3 6 C 0 km/h
654 23-10-2021 07:10:00 6 C 6.97 g/m*3 6 C 0 km/h
655 23-10-2021 07:15:00 6 C 6.97 g/m*3 6 C 0 km/h
656 23-10-2021 07:20:00 6 C 6.97 g/m*3 6 C 0 km/h
657 23-10-2021 07:25:00 5.9 C 6.92 g/m*3 5.9 C 0 km/h
658 23-10-2021 07:30:00 5.7 C 6.83 g/m*3 5.7 C 0 km/h
659 23-10-2021 07:35:00 5.6 C 6.72 g/m*3 5.6 C 0 km/h
660 23-10-2021 07:40:00 5.4 C 6.63 g/m*3 5.4 C 0 km/h
661 23-10-2021 07:45:00 5.3 C 6.58 g/m*3 5.3 C 0 km/h
662 23-10-2021 07:50:00 5.2 C 6.61 g/m*3 5.2 C 3.2 km/h
663 23-10-2021 07:55:00 5.2 C 6.61 g/m*3 5.2 C 0 km/h
664 23-10-2021 08:00:00 5.2 C 6.61 g/m*3 5.2 C 0 km/h
665 23-10-2021 08:05:00 5.3 C 6.65 g/m*3 5.3 C 3.2 km/h
666 23-10-2021 08:10:00 5.4 C 6.7 g/m*3 5.4 C 1.6 km/h
667 23-10-2021 08:15:00 5.6 C 6.79 g/m*3 5.6 C 3.2 km/h
668 23-10-2021 08:20:00 5.8 C 6.88 g/m*3 5.8 C 0 km/h
669 23-10-2021 08:25:00 5.9 C 6.92 g/m*3 5.9 C 0 km/h
670 23-10-2021 08:30:00 6 C 7.04 g/m*3 6 C 0 km/h
671 23-10-2021 08:35:00 6.1 C 7.09 g/m*3 6.1 C 0 km/h
672 23-10-2021 08:40:00 6.2 C 7.06 g/m*3 6.2 C 0 km/h
673 23-10-2021 08:45:00 6.3 C 7.11 g/m*3 6.3 C 0 km/h
674 23-10-2021 08:50:00 6.3 C 7.18 g/m*3 6.3 C 0 km/h
675 23-10-2021 08:55:00 6.4 C 7.23 g/m*3 6.4 C 0 km/h
Sensor: Nr:Datum:Temp:Abs-Feuchte:Windchill:Wind:
Aussen-T/F 676 23-10-2021 09:00:00 6.5 C 7.27 g/m*3 6.5 C 0 km/h
677 23-10-2021 09:05:00 6.6 C 7.32 g/m*3 6.6 C 0 km/h
678 23-10-2021 09:10:00 6.7 C 7.37 g/m*3 6.7 C 0 km/h
679 23-10-2021 09:15:00 6.7 C 7.37 g/m*3 6.7 C 0 km/h
680 23-10-2021 09:20:00 6.8 C 7.42 g/m*3 6.8 C 0 km/h
681 23-10-2021 09:25:00 6.9 C 7.47 g/m*3 6.9 C 0 km/h
682 23-10-2021 09:30:00 7.1 C 7.57 g/m*3 7.1 C 0 km/h
683 23-10-2021 09:35:00 7.2 C 7.61 g/m*3 7.2 C 0 km/h
684 23-10-2021 09:40:00 7.3 C 7.66 g/m*3 7.3 C 0 km/h
685 23-10-2021 09:45:00 7.3 C 7.66 g/m*3 7.3 C 0 km/h
686 23-10-2021 09:50:00 7.4 C 7.71 g/m*3 7.4 C 0 km/h
687 23-10-2021 09:55:00 7.5 C 7.76 g/m*3 7.5 C 0 km/h
688 23-10-2021 10:00:00 7.6 C 7.81 g/m*3 7.6 C 0 km/h
689 23-10-2021 10:05:00 7.6 C 7.81 g/m*3 7.6 C 0 km/h
690 23-10-2021 10:10:00 7.7 C 7.87 g/m*3 7.7 C 0 km/h
691 23-10-2021 10:15:00 7.7 C 7.87 g/m*3 7.7 C 0 km/h
692 23-10-2021 10:20:00 7.8 C 7.92 g/m*3 7.8 C 0 km/h
693 23-10-2021 10:25:00 7.8 C 7.92 g/m*3 7.8 C 0 km/h
694 23-10-2021 10:30:00 7.8 C 7.92 g/m*3 7.8 C 0 km/h
695 23-10-2021 10:35:00 7.8 C 7.92 g/m*3 7.8 C 0 km/h
696 23-10-2021 10:40:00 7.9 C 7.97 g/m*3 7.9 C 0 km/h
697 23-10-2021 10:45:00 7.9 C 7.97 g/m*3 7.9 C 4.8 km/h
698 23-10-2021 10:50:00 7.9 C 7.97 g/m*3 7.9 C 4.8 km/h
699 23-10-2021 10:55:00 7.9 C 7.97 g/m*3 7.9 C 0 km/h
700 23-10-2021 11:00:00 8 C 8.02 g/m*3 8 C 0 km/h
Sensor: Nr:Datum:Temp:Abs-Feuchte:Windchill:Wind:
Aussen-T/F 701 23-10-2021 11:05:00 8.2 C 8.12 g/m*3 8.2 C 0 km/h
702 23-10-2021 11:10:00 8.3 C 8.18 g/m*3 8.3 C 0 km/h
703 23-10-2021 11:15:00 8.4 C 8.23 g/m*3 8.4 C 1.6 km/h
704 23-10-2021 11:20:00 8.4 C 8.23 g/m*3 8.4 C 0 km/h
705 23-10-2021 11:25:00 8.5 C 8.28 g/m*3 8.5 C 0 km/h
706 23-10-2021 11:30:00 8.5 C 8.2 g/m*3 8.5 C 0 km/h
707 23-10-2021 11:35:00 8.6 C 8.25 g/m*3 8.6 C 0 km/h
708 23-10-2021 11:40:00 8.7 C 8.39 g/m*3 8.7 C 0 km/h
709 23-10-2021 11:45:00 8.8 C 8.44 g/m*3 8.8 C 0 km/h
710 23-10-2021 11:50:00 8.9 C 8.5 g/m*3 8.9 C 0 km/h
711 23-10-2021 11:55:00 9.1 C 8.61 g/m*3 9.1 C 0 km/h
712 23-10-2021 12:00:00 9.2 C 8.57 g/m*3 9.2 C 1.6 km/h
713 23-10-2021 12:05:00 9.3 C 8.63 g/m*3 9.3 C 0 km/h
714 23-10-2021 12:10:00 9.3 C 8.63 g/m*3 9.3 C 3.2 km/h
715 23-10-2021 12:15:00 9.3 C 8.63 g/m*3 9.3 C 1.6 km/h
716 23-10-2021 12:20:00 9.4 C 8.68 g/m*3 9.4 C 0 km/h
717 23-10-2021 12:25:00 9.5 C 8.74 g/m*3 9.5 C 0 km/h
718 23-10-2021 12:30:00 9.6 C 8.79 g/m*3 9.6 C 0 km/h
719 23-10-2021 12:35:00 9.8 C 8.91 g/m*3 9.8 C 0 km/h
720 23-10-2021 12:40:00 9.9 C 8.96 g/m*3 9.9 C 0 km/h
721 23-10-2021 12:45:00 10.1 C 8.98 g/m*3 10.1 C 0 km/h
722 23-10-2021 12:50:00 10.1 C 8.89 g/m*3 10.1 C 1.6 km/h
723 23-10-2021 12:55:00 10.2 C 8.95 g/m*3 10.2 C 3.2 km/h
724 23-10-2021 13:00:00 10.3 C 8.91 g/m*3 10.3 C 4.8 km/h
725 23-10-2021 13:05:00 10.4 C 8.87 g/m*3 10.4 C 1.6 km/h
Sensor: Nr:Datum:Temp:Abs-Feuchte:Windchill:Wind:
Aussen-T/F 726 23-10-2021 13:10:00 10.4 C 8.77 g/m*3 10.4 C 0 km/h
727 23-10-2021 13:15:00 10.6 C 8.78 g/m*3 10.6 C 0 km/h
728 23-10-2021 13:20:00 10.6 C 8.69 g/m*3 10.6 C 1.6 km/h
729 23-10-2021 13:25:00 10.8 C 8.8 g/m*3 10.8 C 1.6 km/h
730 23-10-2021 13:30:00 10.8 C 8.8 g/m*3 10.8 C 1.6 km/h
731 23-10-2021 13:35:00 10.9 C 8.85 g/m*3 10.9 C 0 km/h
732 23-10-2021 13:40:00 11.1 C 8.86 g/m*3 11.1 C 4.8 km/h
733 23-10-2021 13:45:00 11.1 C 8.76 g/m*3 11.1 C 3.2 km/h
734 23-10-2021 13:50:00 11.1 C 8.76 g/m*3 11.1 C 1.6 km/h
735 23-10-2021 13:55:00 11.1 C 8.66 g/m*3 11.1 C 4.8 km/h
736 23-10-2021 14:00:00 11.2 C 8.72 g/m*3 11.2 C 3.2 km/h
737 23-10-2021 14:05:00 11.2 C 8.62 g/m*3 11.2 C 4.8 km/h
738 23-10-2021 14:10:00 11.2 C 8.51 g/m*3 11.2 C 3.2 km/h
739 23-10-2021 14:15:00 11.2 C 8.51 g/m*3 11.2 C 3.2 km/h
740 23-10-2021 14:20:00 11.3 C 8.57 g/m*3 11.3 C 1.6 km/h
741 23-10-2021 14:25:00 11.4 C 8.52 g/m*3 11.4 C 3.2 km/h
742 23-10-2021 14:30:00 11.6 C 8.73 g/m*3 11.6 C 4.8 km/h
743 23-10-2021 14:35:00 11.8 C 8.74 g/m*3 11.8 C 6.4 km/h
744 23-10-2021 14:40:00 11.8 C 8.63 g/m*3 11.8 C 6.4 km/h
745 23-10-2021 14:45:00 11.8 C 8.42 g/m*3 11.8 C 6.4 km/h
746 23-10-2021 14:50:00 11.9 C 8.58 g/m*3 11.9 C 6.4 km/h
747 23-10-2021 14:55:00 12 C 8.63 g/m*3 12 C 3.2 km/h
748 23-10-2021 15:00:00 12.1 C 8.47 g/m*3 12.1 C 4.8 km/h
749 23-10-2021 15:05:00 12.1 C 8.36 g/m*3 12.1 C 4.8 km/h
750 23-10-2021 15:10:00 12.1 C 8.47 g/m*3 12.1 C 1.6 km/h
Sensor: Nr:Datum:Temp:Abs-Feuchte:Windchill:Wind:
Aussen-T/F 751 23-10-2021 15:15:00 12.1 C 8.36 g/m*3 12.1 C 3.2 km/h
752 23-10-2021 15:20:00 12.1 C 8.36 g/m*3 12.1 C 3.2 km/h
753 23-10-2021 15:25:00 12.2 C 8.52 g/m*3 12.2 C 4.8 km/h
754 23-10-2021 15:30:00 12.2 C 8.42 g/m*3 12.2 C 0 km/h
755 23-10-2021 15:35:00 12.2 C 8.52 g/m*3 12.2 C 3.2 km/h
756 23-10-2021 15:40:00 12.2 C 8.31 g/m*3 12.2 C 4.8 km/h
757 23-10-2021 15:45:00 12.3 C 8.47 g/m*3 12.3 C 1.6 km/h
758 23-10-2021 15:50:00 12.3 C 8.47 g/m*3 12.3 C 4.8 km/h
759 23-10-2021 15:55:00 12.2 C 8.31 g/m*3 12.2 C 4.8 km/h
760 23-10-2021 16:00:00 12.2 C 8.42 g/m*3 12.2 C 1.6 km/h
761 23-10-2021 16:05:00 12.2 C 8.52 g/m*3 12.2 C 1.6 km/h
762 23-10-2021 16:10:00 12.2 C 8.52 g/m*3 12.2 C 1.6 km/h
763 23-10-2021 16:15:00 12.2 C 8.42 g/m*3 12.2 C 3.2 km/h
764 23-10-2021 16:20:00 12.2 C 8.52 g/m*3 12.2 C 0 km/h
765 23-10-2021 16:25:00 12.3 C 9.01 g/m*3 12.3 C 0 km/h
766 23-10-2021 16:30:00 12.3 C 9.01 g/m*3 12.3 C 0 km/h
767 23-10-2021 16:35:00 12.3 C 9.01 g/m*3 12.3 C 0 km/h
768 23-10-2021 16:40:00 12.4 C 9.18 g/m*3 12.4 C 0 km/h
769 23-10-2021 16:45:00 12.4 C 9.18 g/m*3 12.4 C 1.6 km/h
770 23-10-2021 16:50:00 12.4 C 9.29 g/m*3 12.4 C 0 km/h
771 23-10-2021 16:55:00 12.4 C 9.29 g/m*3 12.4 C 0 km/h
772 23-10-2021 17:00:00 12.3 C 9.23 g/m*3 12.3 C 0 km/h
773 23-10-2021 17:05:00 12.3 C 9.23 g/m*3 12.3 C 0 km/h
774 23-10-2021 17:10:00 12.2 C 9.17 g/m*3 12.2 C 0 km/h
775 23-10-2021 17:15:00 12.1 C 9.12 g/m*3 12.1 C 0 km/h
Sensor: Nr:Datum:Temp:Abs-Feuchte:Windchill:Wind:
Aussen-T/F 776 23-10-2021 17:20:00 11.9 C 9.11 g/m*3 11.9 C 0 km/h
777 23-10-2021 17:25:00 11.8 C 9.05 g/m*3 11.8 C 0 km/h
778 23-10-2021 17:30:00 11.8 C 9.16 g/m*3 11.8 C 0 km/h
779 23-10-2021 17:35:00 11.7 C 9.1 g/m*3 11.7 C 0 km/h
780 23-10-2021 17:40:00 11.7 C 9.1 g/m*3 11.7 C 0 km/h
781 23-10-2021 17:45:00 11.6 C 9.04 g/m*3 11.6 C 0 km/h
782 23-10-2021 17:50:00 11.5 C 8.99 g/m*3 11.5 C 0 km/h
783 23-10-2021 17:55:00 11.4 C 8.93 g/m*3 11.4 C 0 km/h
784 23-10-2021 18:00:00 11.2 C 8.92 g/m*3 11.2 C 0 km/h
785 23-10-2021 18:05:00 11.1 C 8.86 g/m*3 11.1 C 0 km/h
786 23-10-2021 18:10:00 10.9 C 8.75 g/m*3 10.9 C 0 km/h
787 23-10-2021 18:15:00 10.8 C 8.7 g/m*3 10.8 C 0 km/h
788 23-10-2021 18:20:00 10.7 C 8.64 g/m*3 10.7 C 0 km/h
789 23-10-2021 18:25:00 10.4 C 8.48 g/m*3 10.4 C 0 km/h
790 23-10-2021 18:30:00 10.3 C 8.43 g/m*3 10.3 C 0 km/h
791 23-10-2021 18:35:00 10.1 C 8.32 g/m*3 10.1 C 0 km/h
792 23-10-2021 18:40:00 9.9 C 8.22 g/m*3 9.9 C 0 km/h
793 23-10-2021 18:45:00 9.7 C 8.11 g/m*3 9.7 C 0 km/h
794 23-10-2021 18:50:00 9.6 C 8.15 g/m*3 9.6 C 0 km/h
795 23-10-2021 18:55:00 9.4 C 8.05 g/m*3 9.4 C 0 km/h
796 23-10-2021 19:00:00 9.3 C 8 g/m*3 9.3 C 0 km/h
797 23-10-2021 19:05:00 9.1 C 7.9 g/m*3 9.1 C 0 km/h
798 23-10-2021 19:10:00 8.9 C 7.8 g/m*3 8.9 C 0 km/h
799 23-10-2021 19:15:00 8.8 C 7.83 g/m*3 8.8 C 0 km/h
800 23-10-2021 19:20:00 8.7 C 7.87 g/m*3 8.7 C 0 km/h
Sensor: Nr:Datum:Temp:Abs-Feuchte:Windchill:Wind:
Aussen-T/F 801 23-10-2021 19:25:00 8.7 C 7.87 g/m*3 8.7 C 0 km/h
802 23-10-2021 19:30:00 8.6 C 7.82 g/m*3 8.6 C 1.6 km/h
803 23-10-2021 19:35:00 8.4 C 7.72 g/m*3 8.4 C 0 km/h
804 23-10-2021 19:40:00 8.3 C 7.67 g/m*3 8.3 C 0 km/h
805 23-10-2021 19:45:00 8.1 C 7.57 g/m*3 8.1 C 0 km/h
806 23-10-2021 19:50:00 7.9 C 7.47 g/m*3 7.9 C 0 km/h
807 23-10-2021 19:55:00 7.8 C 7.43 g/m*3 7.8 C 0 km/h
808 23-10-2021 20:00:00 7.7 C 7.38 g/m*3 7.7 C 0 km/h
809 23-10-2021 20:05:00 7.6 C 7.33 g/m*3 7.6 C 0 km/h
810 23-10-2021 20:10:00 7.4 C 7.24 g/m*3 7.4 C 0 km/h
811 23-10-2021 20:15:00 7.3 C 7.19 g/m*3 7.3 C 0 km/h
812 23-10-2021 20:20:00 7.1 C 7.1 g/m*3 7.1 C 0 km/h
813 23-10-2021 20:25:00 6.9 C 7.08 g/m*3 6.9 C 0 km/h
814 23-10-2021 20:30:00 6.8 C 7.04 g/m*3 6.8 C 0 km/h
815 23-10-2021 20:35:00 6.7 C 6.99 g/m*3 6.7 C 0 km/h
816 23-10-2021 20:40:00 6.6 C 6.95 g/m*3 6.6 C 0 km/h
817 23-10-2021 20:45:00 6.4 C 6.85 g/m*3 6.4 C 0 km/h
818 23-10-2021 20:50:00 6.3 C 6.81 g/m*3 6.3 C 0 km/h
819 23-10-2021 20:55:00 6.2 C 6.77 g/m*3 6.2 C 0 km/h
820 23-10-2021 21:00:00 6.1 C 6.72 g/m*3 6.1 C 0 km/h
821 23-10-2021 21:05:00 6 C 6.68 g/m*3 6 C 0 km/h
822 23-10-2021 21:10:00 5.9 C 6.63 g/m*3 5.9 C 0 km/h
823 23-10-2021 21:15:00 5.8 C 6.66 g/m*3 5.8 C 0 km/h
824 23-10-2021 21:20:00 5.8 C 6.66 g/m*3 5.8 C 0 km/h
825 23-10-2021 21:25:00 5.7 C 6.62 g/m*3 5.7 C 0 km/h
Sensor: Nr:Datum:Temp:Abs-Feuchte:Windchill:Wind:
Aussen-T/F 826 23-10-2021 21:30:00 5.7 C 6.62 g/m*3 5.7 C 0 km/h
827 23-10-2021 21:35:00 5.7 C 6.62 g/m*3 5.7 C 0 km/h
828 23-10-2021 21:40:00 5.6 C 6.57 g/m*3 5.6 C 0 km/h
829 23-10-2021 21:45:00 5.6 C 6.65 g/m*3 5.6 C 0 km/h
830 23-10-2021 21:50:00 5.6 C 6.57 g/m*3 5.6 C 0 km/h
831 23-10-2021 21:55:00 5.5 C 6.6 g/m*3 5.5 C 0 km/h
832 23-10-2021 22:00:00 5.5 C 6.6 g/m*3 5.5 C 0 km/h
833 23-10-2021 22:05:00 5.4 C 6.56 g/m*3 5.4 C 0 km/h
834 23-10-2021 22:10:00 5.4 C 6.56 g/m*3 5.4 C 0 km/h
835 23-10-2021 22:15:00 5.3 C 6.52 g/m*3 5.3 C 0 km/h
836 23-10-2021 22:20:00 5.3 C 6.52 g/m*3 5.3 C 0 km/h
837 23-10-2021 22:25:00 5.2 C 6.47 g/m*3 5.2 C 0 km/h
838 23-10-2021 22:30:00 5.1 C 6.43 g/m*3 5.1 C 0 km/h
839 23-10-2021 22:35:00 5.1 C 6.43 g/m*3 5.1 C 0 km/h
840 23-10-2021 22:40:00 5 C 6.39 g/m*3 5 C 0 km/h
841 23-10-2021 22:45:00 5 C 6.39 g/m*3 5 C 0 km/h
842 23-10-2021 22:50:00 5 C 6.39 g/m*3 5 C 0 km/h
843 23-10-2021 22:55:00 4.9 C 6.35 g/m*3 4.9 C 0 km/h
844 23-10-2021 23:00:00 4.9 C 6.35 g/m*3 4.9 C 0 km/h
845 23-10-2021 23:05:00 4.8 C 6.3 g/m*3 4.8 C 0 km/h
846 23-10-2021 23:10:00 4.7 C 6.26 g/m*3 4.7 C 0 km/h
847 23-10-2021 23:15:00 4.7 C 6.26 g/m*3 4.7 C 0 km/h
848 23-10-2021 23:20:00 4.6 C 6.22 g/m*3 4.6 C 0 km/h
849 23-10-2021 23:25:00 4.5 C 6.18 g/m*3 4.5 C 0 km/h
850 23-10-2021 23:30:00 4.4 C 6.14 g/m*3 4.4 C 0 km/h
Sensor: Nr:Datum:Temp:Abs-Feuchte:Windchill:Wind:
Aussen-T/F 851 23-10-2021 23:35:00 4.4 C 6.14 g/m*3 4.4 C 0 km/h
852 23-10-2021 23:40:00 4.4 C 6.14 g/m*3 4.4 C 0 km/h
853 23-10-2021 23:45:00 4.3 C 6.1 g/m*3 4.3 C 0 km/h
854 23-10-2021 23:50:00 4.3 C 6.1 g/m*3 4.3 C 0 km/h
855 23-10-2021 23:55:00 4.2 C 6.12 g/m*3 4.2 C 0 km/h

Legende:
   Min
   Max


Maximal/Minimal-Werte vom 21.10.2021 - 23.10.2021

Sensor Min Max Avg
Temp
(Aussen-T/F)
4.2 °C
22-10-2021  07:30:00
15.9 °C
21-10-2021  02:35:00
9.18 °C
Abs-Feuchte
(Aussen-T/F)
6.1 g/m*3
23-10-2021  23:45:00
12.33 g/m*3
21-10-2021  00:45:00
7.84 g/m*3
Windchill
(Aussen-T/F)
0.74 C
22-10-2021  07:55:00
15.9 C
21-10-2021  02:35:00
8.76 C

Die Daten stammen von einer Davis Vantage Pro 2 Wetter-Station und werden unter Linux mit der Software wview2wettercgi und aufbereitet. Alle Angaben erfolgen ohne Gewähr für ihre Vollständigkeit oder Richtigkeit.
Kontakt: Rainer Krienke krienke@uni-koblenz.de . Meine Webseiten an der Uni Koblenz oder privat.
Version: $Revision: 0.78 $